Terminal Aerodrome Forecast
Issued by NWS

Home | Current Version | Previous Version | Text Only | Print | Product List | Glossary On
Versions: 1 2 3 4 5 6 7 8 9 10 11 12 13 14 15 16 17 18 19 20 21 22 23 24 25
000
FTUS41 KOKX 241100 RRA
TAFGON
TAF
KGON 241147Z 2412/2512 35005KT P6SM SCT080 BKN250
     FM241500 35010KT P6SM VCSH BKN040 OVC080
     FM242000 16008KT P6SM VCSH BKN040 OVC080
     FM242300 VRB04KT P6SM SCT040 BKN080=

USA.gov is the U.S. government's official web portal to all federal, state and local government web resources and services.